Scott, Ohio
Current Conditions -  °F | °C
As of 3:53 PM on Friday 19 Dec 2014 (Local Time) from KDFI Reporting Station
Overcast Overcast  
Wind Chill: 31°   Ceiling: 2100
Heat Index: 31°   Visibility: 10mi
Dew Point: 22°   Wind: 0mph
Humidity: 69%   Direction: NA
Pressure: 30.27"   Gusts: NA
Location:  40.99°N, 84.58°W
Report Text: KDFI 192053Z AUTO 00000KT 10SM OVC021 M01/M06 A3027 RMK AO2 SLP259 T10061056 53001 TSNO
Loading
Personal Weather Stations






























Interactive Weather Map New forecast layout! Learn more

10-Day Weather Forecast

Advertisements
Track Severe Weather on mobile